createdAt,value
2022-08-03T00:00:24.209Z,100223.28
2022-08-03T00:02:50.800Z,100226.53
2022-08-03T00:05:17.332Z,100219.78
2022-08-03T00:07:43.814Z,100216.34
2022-08-03T00:10:12.531Z,100222.16
2022-08-03T00:12:38.974Z,100229.19
2022-08-03T00:15:10.429Z,100214.59
2022-08-03T00:17:51.972Z,100219.03
2022-08-03T00:20:19.674Z,100216.94
2022-08-03T00:22:46.100Z,100220.00
2022-08-03T00:25:12.542Z,100219.69
2022-08-03T00:27:38.925Z,100217.31
2022-08-03T00:30:06.104Z,100218.28
2022-08-03T00:32:32.647Z,100219.88
2022-08-03T00:34:59.728Z,100216.88
2022-08-03T00:37:40.873Z,100212.50
2022-08-03T00:40:12.877Z,100206.81
2022-08-03T00:42:56.431Z,100219.22
2022-08-03T00:45:29.043Z,100209.97
2022-08-03T00:47:56.089Z,100203.97
2022-08-03T00:50:24.239Z,100209.03
2022-08-03T00:52:53.311Z,100206.41
2022-08-03T00:55:20.186Z,100196.00
2022-08-03T00:57:47.355Z,100195.63
2022-08-03T01:00:17.605Z,100208.03
2022-08-03T01:02:44.244Z,100205.16
2022-08-03T01:05:11.175Z,100205.44
2022-08-03T01:07:56.226Z,100206.59
2022-08-03T01:10:39.774Z,100204.81
2022-08-03T01:14:01.175Z,100203.38
2022-08-03T01:16:36.810Z,100198.56
2022-08-03T01:19:25.319Z,100200.63
2022-08-03T01:22:26.530Z,100209.09
2022-08-03T01:25:14.847Z,100214.44
2022-08-03T01:28:00.048Z,100210.47
2022-08-03T01:30:35.271Z,100206.28
2022-08-03T01:33:06.195Z,100204.50
2022-08-03T01:35:48.476Z,100205.00
2022-08-03T01:38:39.354Z,100208.31
2022-08-03T01:41:30.946Z,100196.81
2022-08-03T01:44:29.044Z,100199.94
2022-08-03T01:46:49.891Z,100207.22
2022-08-03T01:49:17.666Z,100203.50
2022-08-03T01:52:03.135Z,100200.97
2022-08-03T01:54:34.773Z,100193.41
2022-08-03T01:57:02.790Z,100204.63
2022-08-03T01:59:32.435Z,100201.25
2022-08-03T02:02:25.248Z,100194.44
2022-08-03T02:04:48.119Z,100193.38
2022-08-03T02:07:16.237Z,100198.19
2022-08-03T02:09:46.852Z,100191.25
2022-08-03T02:12:15.199Z,100193.50
2022-08-03T02:14:44.243Z,100191.47
2022-08-03T02:17:12.507Z,100190.97
2022-08-03T02:19:40.604Z,100191.16
2022-08-03T02:22:10.727Z,100192.88
2022-08-03T02:24:37.919Z,100192.66
2022-08-03T02:27:10.617Z,100192.81
2022-08-03T02:29:40.985Z,100197.91
2022-08-03T02:32:12.409Z,100193.25
2022-08-03T02:34:40.799Z,100191.84
2022-08-03T02:37:10.277Z,100194.25
2022-08-03T02:39:39.751Z,100189.75
2022-08-03T02:42:09.292Z,100185.09
2022-08-03T02:44:37.500Z,100197.41
2022-08-03T02:47:09.501Z,100184.03
2022-08-03T02:49:51.025Z,100184.94
2022-08-03T02:52:21.423Z,100185.56
2022-08-03T02:54:50.977Z,100185.56
2022-08-03T02:57:19.373Z,100184.91
2022-08-03T02:59:47.165Z,100183.75
2022-08-03T03:02:15.801Z,100180.50
2022-08-03T03:05:52.106Z,100184.44
2022-08-03T03:07:33.987Z,100185.31
2022-08-03T03:10:17.838Z,100186.16
2022-08-03T03:12:46.683Z,100181.53
2022-08-03T03:15:13.241Z,100186.94
2022-08-03T03:17:40.978Z,100190.75
2022-08-03T03:20:08.817Z,100189.97
2022-08-03T03:22:36.100Z,100186.16
2022-08-03T03:25:02.765Z,100191.03
2022-08-03T03:27:30.320Z,100189.41
2022-08-03T03:29:57.908Z,100187.47
2022-08-03T03:32:26.258Z,100183.25
2022-08-03T03:34:54.016Z,100192.16
2022-08-03T03:37:20.478Z,100192.00
2022-08-03T03:39:47.010Z,100189.56
2022-08-03T03:42:14.022Z,100187.13
2022-08-03T03:44:40.575Z,100189.25
2022-08-03T03:47:07.286Z,100195.03
2022-08-03T03:49:34.201Z,100191.34
2022-08-03T03:52:00.793Z,100195.69
2022-08-03T03:54:29.383Z,100198.47
2022-08-03T03:56:56.018Z,100196.72
2022-08-03T03:59:22.532Z,100197.59
2022-08-03T04:01:49.049Z,100201.91
2022-08-03T04:04:44.371Z,100198.38
2022-08-03T04:07:29.235Z,100199.50
2022-08-03T04:10:15.113Z,100201.16
2022-08-03T04:12:50.191Z,100202.19
2022-08-03T04:15:21.451Z,100197.13
2022-08-03T04:17:50.671Z,100200.38
2022-08-03T04:20:19.864Z,100197.13
2022-08-03T04:22:49.735Z,100198.59
2022-08-03T04:25:19.336Z,100197.31
2022-08-03T04:28:08.148Z,100197.69
2022-08-03T04:30:38.812Z,100191.94
2022-08-03T04:33:06.909Z,100196.06
2022-08-03T04:35:58.475Z,100200.72
2022-08-03T04:38:25.361Z,100202.06
2022-08-03T04:40:52.921Z,100205.69
2022-08-03T04:43:22.495Z,100207.47
2022-08-03T04:45:51.124Z,100214.72
2022-08-03T04:48:17.803Z,100210.22
2022-08-03T04:50:44.599Z,100209.00
2022-08-03T04:53:11.063Z,100217.56
2022-08-03T04:55:37.525Z,100212.16
2022-08-03T04:58:04.618Z,100207.31
2022-08-03T05:00:31.042Z,100210.72
2022-08-03T05:02:57.504Z,100222.94
2022-08-03T05:05:24.426Z,100218.34
2022-08-03T05:07:50.975Z,100226.63
2022-08-03T05:10:18.081Z,100227.97
2022-08-03T05:12:47.536Z,100226.63
2022-08-03T05:15:14.375Z,100216.53
2022-08-03T05:17:40.894Z,100220.44
2022-08-03T05:20:08.091Z,100221.00
2022-08-03T05:22:34.545Z,100225.25
2022-08-03T05:25:02.248Z,100234.31
2022-08-03T05:27:28.702Z,100234.31
2022-08-03T05:29:55.165Z,100233.69
2022-08-03T05:32:21.790Z,100240.09
2022-08-03T05:34:48.728Z,100238.13
2022-08-03T05:37:15.118Z,100243.50
2022-08-03T05:39:41.527Z,100243.31
2022-08-03T05:42:07.935Z,100241.53
2022-08-03T05:44:34.506Z,100239.16
2022-08-03T05:47:00.989Z,100243.88
2022-08-03T05:49:27.559Z,100241.88
2022-08-03T05:52:00.159Z,100236.00
2022-08-03T05:54:55.555Z,100235.31
2022-08-03T05:57:24.715Z,100236.34
2022-08-03T05:59:54.563Z,100240.16
2022-08-03T06:02:25.400Z,100241.91
2022-08-03T06:04:51.802Z,100234.31
2022-08-03T06:07:18.568Z,100232.97
2022-08-03T06:10:33.783Z,100237.88
2022-08-03T06:12:34.447Z,100241.56
2022-08-03T06:15:00.848Z,100240.22
2022-08-03T06:17:27.243Z,100237.09
2022-08-03T06:20:04.641Z,100232.44
2022-08-03T06:22:31.073Z,100234.09
2022-08-03T06:24:58.597Z,100228.53
2022-08-03T06:27:37.067Z,100233.53
2022-08-03T06:30:05.000Z,100237.41
2022-08-03T06:32:31.484Z,100243.28
2022-08-03T06:34:57.873Z,100235.25
2022-08-03T06:37:24.606Z,100225.22
2022-08-03T06:39:51.030Z,100235.66
2022-08-03T06:42:17.842Z,100231.63
2022-08-03T06:44:47.020Z,100226.09
2022-08-03T06:47:13.518Z,100222.41
2022-08-03T06:49:41.039Z,100226.84
2022-08-03T06:52:07.467Z,100234.66
2022-08-03T06:54:34.159Z,100232.63
2022-08-03T06:57:00.898Z,100235.44
2022-08-03T07:00:09.958Z,100237.75
2022-08-03T07:02:19.011Z,100234.97
2022-08-03T07:04:47.460Z,100232.84
2022-08-03T07:07:14.068Z,100228.28
2022-08-03T07:09:40.504Z,100235.47
2022-08-03T07:12:08.524Z,100238.25
2022-08-03T07:14:35.044Z,100237.75
2022-08-03T07:17:01.590Z,100240.59
2022-08-03T07:19:31.127Z,100243.19
2022-08-03T07:21:58.291Z,100238.59
2022-08-03T07:24:29.141Z,100246.19
2022-08-03T07:26:55.722Z,100249.94
2022-08-03T07:29:22.107Z,100241.28
2022-08-03T07:31:48.603Z,100243.91
2022-08-03T07:34:15.157Z,100245.75
2022-08-03T07:36:41.541Z,100245.44
2022-08-03T07:39:16.587Z,100240.72
2022-08-03T07:41:45.680Z,100241.97
2022-08-03T07:44:12.209Z,100239.09
2022-08-03T07:46:38.665Z,100238.25
2022-08-03T07:49:05.381Z,100232.97
2022-08-03T07:51:31.853Z,100239.00
2022-08-03T07:53:58.957Z,100247.59
2022-08-03T07:56:25.379Z,100243.69
2022-08-03T07:58:52.981Z,100243.94
2022-08-03T08:01:19.567Z,100238.28
2022-08-03T08:03:53.396Z,100238.06
2022-08-03T08:06:20.987Z,100242.16
2022-08-03T08:08:48.157Z,100231.72
2022-08-03T08:11:14.812Z,100229.16
2022-08-03T08:13:41.236Z,100233.59
2022-08-03T08:16:07.721Z,100223.63
2022-08-03T08:18:34.482Z,100222.66
2022-08-03T08:21:03.194Z,100223.66
2022-08-03T08:23:38.051Z,100219.66
2022-08-03T08:26:10.430Z,100219.38
2022-08-03T08:28:36.874Z,100222.78
2022-08-03T08:31:03.305Z,100222.09
2022-08-03T08:36:16.233Z,100222.44
2022-08-03T08:38:44.534Z,100223.50
2022-08-03T08:41:12.718Z,100225.41
2022-08-03T08:43:39.185Z,100213.56
2022-08-03T08:46:08.325Z,100214.91
2022-08-03T08:48:36.402Z,100220.22
2022-08-03T08:51:03.249Z,100215.44
2022-08-03T08:53:30.168Z,100218.38
2022-08-03T08:56:02.118Z,100219.22
2022-08-03T08:58:30.550Z,100206.53
2022-08-03T09:00:57.201Z,100209.59
2022-08-03T09:03:29.553Z,100203.97
2022-08-03T09:05:59.332Z,100209.78
2022-08-03T09:08:25.806Z,100207.56
2022-08-03T09:10:52.445Z,100204.16
2022-08-03T09:13:19.279Z,100200.88
2022-08-03T09:15:53.323Z,100208.00
2022-08-03T09:18:33.184Z,100205.53
2022-08-03T09:21:36.920Z,100203.59
2022-08-03T09:24:07.094Z,100202.44
2022-08-03T09:26:37.054Z,100205.75
2022-08-03T09:29:13.857Z,100202.22
2022-08-03T09:31:44.328Z,100195.72
2022-08-03T09:34:13.715Z,100207.53
2022-08-03T09:36:46.195Z,100201.00
2022-08-03T09:39:18.002Z,100202.41
2022-08-03T09:41:46.918Z,100195.69
2022-08-03T09:44:24.453Z,100196.56
2022-08-03T09:46:56.512Z,100200.19
2022-08-03T09:49:24.255Z,100192.94
2022-08-03T09:52:31.426Z,100195.63
2022-08-03T09:54:38.077Z,100192.97
2022-08-03T09:57:04.653Z,100188.13
2022-08-03T09:59:33.560Z,100186.06
2022-08-03T10:02:00.616Z,100181.59
2022-08-03T10:04:27.278Z,100178.66
2022-08-03T10:07:04.429Z,100182.75
2022-08-03T10:09:31.085Z,100183.75
2022-08-03T10:11:58.504Z,100178.53
2022-08-03T10:14:30.246Z,100167.63
2022-08-03T10:16:56.712Z,100165.63
2022-08-03T10:19:23.256Z,100166.59
2022-08-03T10:21:53.629Z,100164.38
2022-08-03T10:24:25.212Z,100162.78
2022-08-03T10:26:53.445Z,100159.91
2022-08-03T10:29:28.094Z,100154.34
2022-08-03T10:31:58.907Z,100145.91
2022-08-03T10:34:35.151Z,100150.16
2022-08-03T10:37:07.938Z,100142.84
2022-08-03T10:39:36.072Z,100138.41
2022-08-03T10:42:03.983Z,100138.56
2022-08-03T10:44:39.110Z,100134.88
2022-08-03T10:47:06.214Z,100129.59
2022-08-03T10:49:34.301Z,100127.78
2022-08-03T10:52:13.365Z,100119.75
2022-08-03T10:55:10.666Z,100116.16
2022-08-03T10:57:58.358Z,100116.81
2022-08-03T11:00:27.416Z,100118.78
2022-08-03T11:03:08.599Z,100117.25
2022-08-03T11:05:37.744Z,100118.13
2022-08-03T11:08:26.071Z,100119.63
2022-08-03T11:10:55.229Z,100115.94
2022-08-03T11:13:24.738Z,100111.53
2022-08-03T11:16:00.160Z,100112.25
2022-08-03T11:18:29.950Z,100105.56
2022-08-03T11:20:59.178Z,100109.41
2022-08-03T11:24:02.759Z,100105.78
2022-08-03T11:26:33.346Z,100104.41
2022-08-03T11:29:30.856Z,100097.41
2022-08-03T11:31:57.507Z,100107.13
2022-08-03T11:34:24.621Z,100102.84
2022-08-03T11:37:21.849Z,100094.38
2022-08-03T11:39:50.802Z,100098.78
2022-08-03T11:42:26.986Z,100092.38
2022-08-03T11:44:55.257Z,100092.81
2022-08-03T11:47:23.165Z,100094.94
2022-08-03T11:49:51.490Z,100094.44
2022-08-03T11:52:19.461Z,100096.84
2022-08-03T11:54:57.028Z,100091.72
2022-08-03T11:59:10.935Z,100093.47
2022-08-03T12:00:29.561Z,100089.56
2022-08-03T12:03:00.977Z,100078.22
2022-08-03T12:05:51.272Z,100083.84
2022-08-03T12:08:31.165Z,100081.44
2022-08-03T12:11:00.142Z,100077.47
2022-08-03T12:14:45.594Z,100080.19
2022-08-03T12:16:25.852Z,100081.50
2022-08-03T12:19:04.922Z,100078.84
2022-08-03T12:21:31.433Z,100072.91
2022-08-03T12:24:00.287Z,100074.50
2022-08-03T12:26:28.704Z,100069.47
2022-08-03T12:28:55.261Z,100065.50
2022-08-03T12:31:21.712Z,100060.34
2022-08-03T12:34:02.823Z,100058.75
2022-08-03T12:36:31.691Z,100057.25
2022-08-03T12:39:01.482Z,100046.38
2022-08-03T12:41:36.753Z,100054.03
2022-08-03T12:44:08.127Z,100045.56
2022-08-03T12:46:42.743Z,100044.19
2022-08-03T12:49:15.417Z,100044.66
2022-08-03T12:51:41.968Z,100048.88
2022-08-03T12:54:09.989Z,100050.19
2022-08-03T12:56:58.852Z,100046.56
2022-08-03T12:59:32.448Z,100046.56
2022-08-03T13:02:04.516Z,100036.44
2022-08-03T13:04:36.564Z,100035.38
2022-08-03T13:07:12.675Z,100032.19
2022-08-03T13:09:46.181Z,100035.16
2022-08-03T13:12:20.936Z,100033.66
2022-08-03T13:14:50.898Z,100028.41
2022-08-03T13:17:18.131Z,100023.19
2022-08-03T13:19:45.958Z,100030.44
2022-08-03T13:22:22.435Z,100019.44
2022-08-03T13:24:51.068Z,100027.44
2022-08-03T13:27:22.108Z,100028.28
2022-08-03T13:30:05.613Z,100026.66
2022-08-03T13:32:33.112Z,100016.81
2022-08-03T13:34:59.970Z,100019.84
2022-08-03T13:37:26.902Z,100013.91
2022-08-03T13:39:59.147Z,100014.50
2022-08-03T13:42:28.374Z,100005.72
2022-08-03T13:44:54.772Z,100001.47
2022-08-03T13:47:21.580Z,99994.69
2022-08-03T13:49:59.779Z,99995.22
2022-08-03T13:52:27.509Z,99992.63
2022-08-03T13:54:53.985Z,99991.19
2022-08-03T13:58:03.860Z,99985.19
2022-08-03T14:00:07.826Z,99988.00
2022-08-03T14:02:34.321Z,99980.69
2022-08-03T14:05:00.861Z,99984.34
2022-08-03T14:07:27.275Z,99979.41
2022-08-03T14:09:53.677Z,99981.34
2022-08-03T14:12:20.138Z,99975.78
2022-08-03T14:14:46.583Z,99975.56
2022-08-03T14:17:13.016Z,99977.09
2022-08-03T14:19:52.636Z,99969.84
2022-08-03T14:22:20.250Z,99974.75
2022-08-03T14:24:46.762Z,99961.59
2022-08-03T14:27:13.199Z,99973.66
2022-08-03T14:29:39.631Z,99970.28
2022-08-03T14:32:09.983Z,99973.25
2022-08-03T14:34:38.815Z,99959.84
2022-08-03T14:37:05.250Z,99961.16
2022-08-03T14:39:58.198Z,99965.59
2022-08-03T14:42:18.105Z,99962.19
2022-08-03T14:44:44.582Z,99951.75
2022-08-03T14:47:11.047Z,99951.38
2022-08-03T14:50:36.015Z,99947.53
2022-08-03T14:52:24.889Z,99946.69
2022-08-03T14:54:51.337Z,99943.69
2022-08-03T14:57:17.899Z,99930.47
2022-08-03T14:59:56.401Z,99936.03
2022-08-03T15:02:24.333Z,99933.59
2022-08-03T15:04:51.473Z,99929.63
2022-08-03T15:07:18.292Z,99931.56
2022-08-03T15:09:44.965Z,99925.16
2022-08-03T15:12:11.637Z,99929.00
2022-08-03T15:14:38.935Z,99922.00
2022-08-03T15:17:06.239Z,99923.88
2022-08-03T15:20:02.796Z,99924.59
2022-08-03T15:22:20.530Z,99922.22
2022-08-03T15:24:47.332Z,99910.94
2022-08-03T15:27:13.750Z,99907.97
2022-08-03T15:30:07.793Z,99912.13
2022-08-03T15:32:27.124Z,99902.44
2022-08-03T15:34:55.225Z,99897.78
2022-08-03T15:37:21.817Z,99896.25
2022-08-03T15:39:59.240Z,99896.69
2022-08-03T15:42:27.994Z,99889.44
2022-08-03T15:44:54.838Z,99895.22
2022-08-03T15:47:21.625Z,99884.53
2022-08-03T15:49:48.306Z,99886.91
2022-08-03T15:52:14.709Z,99886.50
2022-08-03T15:54:41.189Z,99887.97
2022-08-03T15:57:07.698Z,99881.38
2022-08-03T15:59:34.114Z,99884.38
2022-08-03T16:02:00.672Z,99879.03
2022-08-03T16:04:27.173Z,99872.47
2022-08-03T16:06:53.669Z,99874.78
2022-08-03T16:09:24.326Z,99875.63
2022-08-03T16:12:06.583Z,99874.38
2022-08-03T16:14:51.917Z,99866.47
2022-08-03T16:17:19.481Z,99868.81
2022-08-03T16:19:46.214Z,99873.53
2022-08-03T16:22:13.407Z,99865.81
2022-08-03T16:24:41.195Z,99867.78
2022-08-03T16:27:07.899Z,99860.72
2022-08-03T16:29:44.852Z,99870.72
2022-08-03T16:32:11.454Z,99865.03
2022-08-03T16:34:39.259Z,99866.72
2022-08-03T16:37:28.468Z,99865.38
2022-08-03T16:39:53.638Z,99866.47
2022-08-03T16:42:20.127Z,99864.16
2022-08-03T16:44:47.165Z,99861.19
2022-08-03T16:47:22.201Z,99858.00
2022-08-03T16:49:54.323Z,99851.19
2022-08-03T16:52:23.087Z,99850.13
2022-08-03T16:54:52.792Z,99855.63
2022-08-03T16:57:56.351Z,99846.50
2022-08-03T17:00:11.725Z,99846.84
2022-08-03T17:02:48.115Z,99848.78
2022-08-03T17:05:14.885Z,99851.16
2022-08-03T17:07:41.475Z,99851.59
2022-08-03T17:10:14.336Z,99847.75
2022-08-03T17:12:48.831Z,99851.38
2022-08-03T17:15:15.393Z,99847.53
2022-08-03T17:17:55.852Z,99847.97
2022-08-03T17:20:29.696Z,99847.53
2022-08-03T17:23:03.227Z,99849.22
2022-08-03T17:25:51.361Z,99845.84
2022-08-03T17:28:50.296Z,99850.69
2022-08-03T17:31:23.316Z,99844.97
2022-08-03T17:34:00.522Z,99846.47
2022-08-03T17:36:41.928Z,99844.06
2022-08-03T17:39:23.524Z,99839.19
2022-08-03T17:42:00.724Z,99844.88
2022-08-03T17:44:31.159Z,99846.16
2022-08-03T17:47:10.710Z,99842.31
2022-08-03T17:49:40.167Z,99845.31
2022-08-03T17:52:35.032Z,99845.94
2022-08-03T17:55:55.586Z,99843.13
2022-08-03T17:58:12.223Z,99847.59
2022-08-03T18:01:02.450Z,99850.94
2022-08-03T18:03:57.859Z,99846.91
2022-08-03T18:06:31.085Z,99846.59
2022-08-03T18:09:00.100Z,99849.09
2022-08-03T18:11:37.148Z,99848.84
2022-08-03T18:14:16.594Z,99848.25
2022-08-03T18:16:56.067Z,99852.53
2022-08-03T18:20:03.285Z,99851.25
2022-08-03T18:22:13.204Z,99846.53
2022-08-03T18:24:41.696Z,99850.72
2022-08-03T18:27:10.617Z,99847.78
2022-08-03T18:29:38.057Z,99855.56
2022-08-03T18:32:13.315Z,99855.41
2022-08-03T18:34:53.480Z,99850.47
2022-08-03T18:37:25.255Z,99864.72
2022-08-03T18:39:57.986Z,99862.03
2022-08-03T18:42:25.994Z,99858.81
2022-08-03T18:44:56.275Z,99857.69
2022-08-03T18:47:50.997Z,99858.31
2022-08-03T18:50:35.390Z,99855.22
2022-08-03T18:53:16.346Z,99858.81
2022-08-03T18:56:05.921Z,99864.31
2022-08-03T18:58:54.351Z,99856.91
2022-08-03T19:02:00.496Z,99865.88
2022-08-03T19:04:24.646Z,99861.28
2022-08-03T19:06:58.688Z,99862.41
2022-08-03T19:09:33.049Z,99865.53
2022-08-03T19:12:26.015Z,99858.84
2022-08-03T19:14:56.368Z,99869.47
2022-08-03T19:17:29.360Z,99872.94
2022-08-03T19:19:57.777Z,99867.75
2022-08-03T19:22:27.188Z,99872.88
2022-08-03T19:24:55.380Z,99879.88
2022-08-03T19:27:26.840Z,99873.84
2022-08-03T19:29:59.174Z,99878.81
2022-08-03T19:32:31.721Z,99876.19
2022-08-03T19:35:00.246Z,99877.59
2022-08-03T19:37:38.355Z,99875.97
2022-08-03T19:40:12.258Z,99874.28
2022-08-03T19:42:44.493Z,99880.63
2022-08-03T19:45:15.463Z,99877.88
2022-08-03T19:47:52.404Z,99875.00
2022-08-03T19:50:20.281Z,99877.56
2022-08-03T19:52:47.982Z,99866.13
2022-08-03T19:55:15.793Z,99873.47
2022-08-03T19:57:46.369Z,99870.91
2022-08-03T20:00:19.475Z,99871.41
2022-08-03T20:02:46.258Z,99875.88
2022-08-03T20:05:15.203Z,99876.91
2022-08-03T20:07:47.982Z,99873.00
2022-08-03T20:10:16.169Z,99885.19
2022-08-03T20:12:45.016Z,99874.06
2022-08-03T20:15:12.210Z,99876.28
2022-08-03T20:17:57.049Z,99865.66
2022-08-03T20:20:28.693Z,99868.22
2022-08-03T20:22:58.002Z,99868.56
2022-08-03T20:25:38.366Z,99875.25
2022-08-03T20:28:23.142Z,99889.25
2022-08-03T20:30:53.333Z,99885.66
2022-08-03T20:33:19.880Z,99885.66
2022-08-03T20:35:54.501Z,99881.16
2022-08-03T20:38:27.301Z,99883.38
2022-08-03T20:40:54.266Z,99880.50
2022-08-03T20:43:20.762Z,99881.09
2022-08-03T20:46:00.390Z,99881.91
2022-08-03T20:48:36.534Z,99888.38
2022-08-03T20:51:19.391Z,99884.53
2022-08-03T20:54:00.376Z,99886.72
2022-08-03T20:56:31.875Z,99888.66
2022-08-03T20:59:05.883Z,99882.09
2022-08-03T21:01:36.310Z,99871.78
2022-08-03T21:07:16.701Z,99887.75
2022-08-03T21:09:57.144Z,99881.03
2022-08-03T21:12:34.247Z,99873.03
2022-08-03T21:15:06.039Z,99881.38
2022-08-03T21:17:41.875Z,99885.66
2022-08-03T21:20:10.731Z,99878.13
2022-08-03T21:22:39.381Z,99882.16
2022-08-03T21:25:09.151Z,99873.28
2022-08-03T21:27:36.694Z,99878.22
2022-08-03T21:30:07.831Z,99879.16
2022-08-03T21:32:34.921Z,99882.19
2022-08-03T21:35:02.039Z,99876.94
2022-08-03T21:37:29.229Z,99876.53
2022-08-03T21:39:56.181Z,99880.50
2022-08-03T21:42:23.806Z,99876.44
2022-08-03T21:44:52.325Z,99873.69
2022-08-03T21:47:21.537Z,99875.03
2022-08-03T21:50:07.972Z,99876.63
2022-08-03T21:52:41.626Z,99876.50
2022-08-03T21:55:08.742Z,99873.66
2022-08-03T21:57:51.215Z,99875.72
2022-08-03T22:00:19.814Z,99879.31
2022-08-03T22:02:53.076Z,99870.44
2022-08-03T22:05:42.402Z,99879.34
2022-08-03T22:08:09.863Z,99873.03
2022-08-03T22:10:37.047Z,99877.34
2022-08-03T22:13:03.644Z,99880.22
2022-08-03T22:15:30.620Z,99882.06
2022-08-03T22:17:59.041Z,99880.50
2022-08-03T22:20:25.918Z,99877.63
2022-08-03T22:22:55.715Z,99867.06
2022-08-03T22:25:28.535Z,99875.34
2022-08-03T22:27:55.339Z,99879.09
2022-08-03T22:30:21.781Z,99885.38
2022-08-03T22:32:51.903Z,99882.94
2022-08-03T22:35:20.876Z,99880.34
2022-08-03T22:37:49.448Z,99884.50
2022-08-03T22:40:16.912Z,99890.47
2022-08-03T22:42:45.836Z,99889.09
2022-08-03T22:46:07.855Z,99892.69
2022-08-03T22:47:59.830Z,99890.94
2022-08-03T22:50:31.235Z,99889.66
2022-08-03T22:53:00.176Z,99893.28
2022-08-03T22:55:27.029Z,99898.75
2022-08-03T22:57:56.087Z,99891.88
2022-08-03T23:00:23.736Z,99898.28
2022-08-03T23:02:51.868Z,99901.25
2022-08-03T23:06:00.239Z,99899.25
2022-08-03T23:08:14.340Z,99899.41
2022-08-03T23:10:46.312Z,99898.94
2022-08-03T23:13:16.286Z,99896.22
2022-08-03T23:15:55.881Z,99899.75
2022-08-03T23:18:24.091Z,99902.03
2022-08-03T23:20:56.946Z,99905.44
2022-08-03T23:23:24.377Z,99902.72
2022-08-03T23:25:51.669Z,99903.16
2022-08-03T23:28:18.348Z,99894.78
2022-08-03T23:30:45.314Z,99897.72
2022-08-03T23:33:15.014Z,99895.72
2022-08-03T23:36:29.845Z,99904.44
2022-08-03T23:38:44.941Z,99897.50
2022-08-03T23:41:13.399Z,99904.44
2022-08-03T23:43:50.777Z,99899.00
2022-08-03T23:46:21.803Z,99904.88
2022-08-03T23:48:48.419Z,99897.88
2022-08-03T23:51:29.224Z,99898.28
2022-08-03T23:54:17.384Z,99898.88
2022-08-03T23:57:01.995Z,99899.75
2022-08-03T23:59:43.983Z,99896.22
